createdAt,value
2018-01-29T00:00:18.776Z,10.10
2018-01-29T00:02:46.986Z,10.10
2018-01-29T00:05:14.421Z,10.10
2018-01-29T00:07:41.861Z,10.10
2018-01-29T00:10:10.077Z,10.10
2018-01-29T00:12:37.534Z,10.10
2018-01-29T00:15:04.966Z,10.10
2018-01-29T00:17:32.407Z,10.10
2018-01-29T00:20:00.625Z,10.10
2018-01-29T00:22:28.063Z,10.10
2018-01-29T00:24:55.511Z,10.10
2018-01-29T00:27:22.948Z,10.00
2018-01-29T00:29:51.165Z,10.00
2018-01-29T00:32:18.593Z,10.00
2018-01-29T00:34:46.046Z,10.00
2018-01-29T00:37:14.241Z,10.00
2018-01-29T00:39:41.680Z,10.00
2018-01-29T00:42:09.889Z,10.00
2018-01-29T00:44:37.503Z,10.00
2018-01-29T00:47:04.937Z,10.00
2018-01-29T00:49:32.394Z,10.00
2018-01-29T00:51:59.846Z,10.00
2018-01-29T00:54:27.287Z,10.00
2018-01-29T00:56:54.729Z,10.00
2018-01-29T00:59:22.186Z,10.00
2018-01-29T01:01:49.622Z,10.00
2018-01-29T01:04:17.072Z,10.00
2018-01-29T01:06:45.285Z,10.00
2018-01-29T01:09:12.733Z,10.00
2018-01-29T01:11:40.172Z,10.00
2018-01-29T01:14:08.376Z,10.00
2018-01-29T01:16:35.805Z,10.00
2018-01-29T01:19:03.249Z,10.00
2018-01-29T01:21:31.440Z,10.00
2018-01-29T01:23:58.881Z,10.00
2018-01-29T01:26:27.067Z,10.00
2018-01-29T01:28:54.501Z,9.90
2018-01-29T01:31:22.697Z,10.00
2018-01-29T01:33:50.154Z,9.90
2018-01-29T01:36:17.603Z,10.00
2018-01-29T01:38:45.810Z,9.90
2018-01-29T01:41:13.250Z,9.90
2018-01-29T01:43:40.681Z,9.90
2018-01-29T01:46:08.902Z,9.90
2018-01-29T01:48:36.341Z,9.90
2018-01-29T01:51:03.772Z,9.90
2018-01-29T01:53:31.987Z,9.90
2018-01-29T01:55:59.430Z,9.90
2018-01-29T01:58:26.848Z,9.90
2018-01-29T02:00:54.292Z,9.90
2018-01-29T02:03:21.731Z,9.90
2018-01-29T02:05:49.174Z,9.90
2018-01-29T02:08:16.647Z,9.90
2018-01-29T02:10:44.090Z,9.90
2018-01-29T02:13:11.531Z,9.90
2018-01-29T02:15:38.982Z,9.90
2018-01-29T02:18:06.414Z,9.90
2018-01-29T02:20:34.622Z,9.90
2018-01-29T02:23:02.054Z,9.90
2018-01-29T02:25:30.430Z,9.90
2018-01-29T02:27:58.635Z,10.00
2018-01-29T02:30:26.076Z,9.90
2018-01-29T02:32:53.512Z,10.00
2018-01-29T02:35:21.717Z,10.00
2018-01-29T02:37:49.149Z,9.90
2018-01-29T02:40:17.354Z,10.00
2018-01-29T02:42:44.785Z,9.90
2018-01-29T02:45:12.997Z,10.00
2018-01-29T02:47:40.437Z,10.00
2018-01-29T02:50:07.885Z,10.00
2018-01-29T02:52:35.317Z,10.00
2018-01-29T02:55:03.530Z,10.00
2018-01-29T02:57:30.968Z,9.90
2018-01-29T02:59:59.184Z,9.90
2018-01-29T03:02:26.625Z,9.90
2018-01-29T03:04:54.070Z,9.90
2018-01-29T03:07:21.500Z,9.90
2018-01-29T03:09:49.705Z,9.90
2018-01-29T03:12:17.132Z,9.90
2018-01-29T03:14:45.346Z,9.90
2018-01-29T03:17:12.772Z,9.90
2018-01-29T03:19:40.978Z,9.90
2018-01-29T03:22:08.414Z,9.90
2018-01-29T03:24:35.851Z,9.90
2018-01-29T03:27:04.059Z,9.90
2018-01-29T03:29:31.501Z,9.90
2018-01-29T03:31:59.714Z,9.90
2018-01-29T03:34:27.294Z,9.90
2018-01-29T03:36:54.766Z,10.00
2018-01-29T03:39:22.205Z,10.00
2018-01-29T03:41:49.654Z,10.00
2018-01-29T03:44:17.104Z,10.00
2018-01-29T03:46:44.554Z,10.00
2018-01-29T03:49:11.983Z,10.00
2018-01-29T03:51:39.424Z,10.00
2018-01-29T03:54:07.639Z,10.00
2018-01-29T03:56:35.080Z,10.00
2018-01-29T03:59:02.518Z,10.00
2018-01-29T04:01:30.731Z,10.10
2018-01-29T04:03:58.173Z,10.10
2018-01-29T04:06:25.617Z,10.10
2018-01-29T04:08:53.055Z,10.10
2018-01-29T04:11:21.280Z,10.10
2018-01-29T04:13:48.727Z,10.10
2018-01-29T04:16:16.165Z,10.10
2018-01-29T04:18:43.605Z,10.10
2018-01-29T04:21:11.829Z,10.10
2018-01-29T04:23:39.267Z,10.00
2018-01-29T04:26:06.722Z,10.00
2018-01-29T04:28:34.145Z,10.00
2018-01-29T04:31:02.367Z,10.00
2018-01-29T04:33:29.800Z,10.00
2018-01-29T04:35:57.320Z,10.00
2018-01-29T04:38:24.832Z,10.00
2018-01-29T04:40:52.292Z,10.00
2018-01-29T04:43:19.726Z,10.00
2018-01-29T04:45:47.979Z,10.00
2018-01-29T04:48:15.404Z,10.00
2018-01-29T04:50:42.843Z,10.00
2018-01-29T04:53:10.290Z,10.00
2018-01-29T04:55:37.730Z,10.00
2018-01-29T04:58:05.934Z,10.00
2018-01-29T05:00:33.373Z,10.00
2018-01-29T05:03:00.818Z,10.00
2018-01-29T05:05:28.253Z,10.00
2018-01-29T05:07:55.694Z,10.00
2018-01-29T05:10:23.137Z,10.00
2018-01-29T05:12:50.593Z,10.00
2018-01-29T05:15:18.040Z,10.00
2018-01-29T05:17:45.493Z,10.00
2018-01-29T05:20:12.930Z,10.00
2018-01-29T05:22:40.378Z,10.00
2018-01-29T05:25:08.582Z,10.00
2018-01-29T05:27:36.042Z,10.00
2018-01-29T05:30:03.495Z,10.00
2018-01-29T05:32:30.946Z,10.00
2018-01-29T05:35:13.262Z,10.00
2018-01-29T05:37:43.150Z,10.00
2018-01-29T05:40:10.589Z,10.00
2018-01-29T05:42:38.814Z,10.00
2018-01-29T05:45:06.245Z,10.00
2018-01-29T05:47:33.694Z,10.00
2018-01-29T05:50:01.135Z,10.00
2018-01-29T05:52:29.349Z,9.90
2018-01-29T05:54:56.781Z,10.00
2018-01-29T05:57:24.225Z,10.00
2018-01-29T05:59:52.503Z,10.00
2018-01-29T06:02:20.718Z,10.00
2018-01-29T06:04:48.166Z,10.00
2018-01-29T06:07:15.614Z,10.00
2018-01-29T06:09:43.050Z,10.00
2018-01-29T06:12:11.266Z,10.00
2018-01-29T06:14:38.701Z,10.00
2018-01-29T06:17:06.150Z,10.00
2018-01-29T06:19:33.586Z,10.00
2018-01-29T06:22:01.800Z,10.00
2018-01-29T06:24:29.229Z,10.00
2018-01-29T06:26:57.425Z,9.90
2018-01-29T06:29:24.880Z,9.90
2018-01-29T06:31:52.308Z,9.90
2018-01-29T06:34:20.522Z,9.90
2018-01-29T06:36:47.946Z,9.90
2018-01-29T06:39:16.159Z,9.90
2018-01-29T06:41:43.603Z,9.90
2018-01-29T06:44:11.046Z,9.90
2018-01-29T06:46:38.479Z,9.90
2018-01-29T06:49:06.694Z,9.90
2018-01-29T06:51:34.122Z,9.90
2018-01-29T06:54:02.334Z,9.80
2018-01-29T06:56:29.795Z,9.80
2018-01-29T06:58:57.238Z,9.80
2018-01-29T07:01:24.666Z,9.80
2018-01-29T07:03:52.881Z,9.80
2018-01-29T07:06:20.312Z,9.80
2018-01-29T07:08:47.762Z,9.80
2018-01-29T07:11:15.959Z,9.80
2018-01-29T07:13:43.421Z,9.80
2018-01-29T07:16:10.841Z,9.80
2018-01-29T07:18:39.059Z,9.80
2018-01-29T07:21:06.493Z,9.80
2018-01-29T07:23:33.937Z,9.80
2018-01-29T07:26:02.405Z,9.80
2018-01-29T07:28:30.624Z,9.80
2018-01-29T07:30:58.050Z,9.80
2018-01-29T07:33:26.283Z,9.80
2018-01-29T07:35:53.669Z,9.80
2018-01-29T07:38:21.882Z,9.80
2018-01-29T07:40:49.309Z,9.80
2018-01-29T07:43:17.536Z,9.80
2018-01-29T07:45:44.977Z,9.80
2018-01-29T07:48:12.435Z,9.80
2018-01-29T07:50:39.861Z,9.80
2018-01-29T07:53:08.075Z,9.80
2018-01-29T07:55:35.524Z,9.80
2018-01-29T07:58:03.098Z,9.80
2018-01-29T08:00:30.545Z,9.80
2018-01-29T08:02:57.983Z,9.80
2018-01-29T08:05:25.427Z,9.80
2018-01-29T08:07:53.633Z,9.80
2018-01-29T08:10:21.089Z,9.80
2018-01-29T08:12:48.519Z,9.80
2018-01-29T08:15:16.726Z,9.80
2018-01-29T08:17:44.180Z,9.80
2018-01-29T08:20:11.618Z,9.80
2018-01-29T08:22:39.051Z,9.90
2018-01-29T08:25:07.267Z,9.90
2018-01-29T08:27:34.724Z,9.90
2018-01-29T08:30:02.158Z,9.80
2018-01-29T08:32:29.594Z,9.90
2018-01-29T08:34:57.810Z,9.90
2018-01-29T08:37:25.243Z,9.90
2018-01-29T08:39:52.690Z,9.90
2018-01-29T08:42:20.899Z,9.90
2018-01-29T08:44:48.343Z,9.80
2018-01-29T08:47:15.891Z,9.90
2018-01-29T08:49:43.252Z,9.90
2018-01-29T08:52:10.690Z,9.90
2018-01-29T08:54:38.902Z,9.90
2018-01-29T08:57:06.349Z,9.90
2018-01-29T08:59:33.786Z,9.90
2018-01-29T09:02:02.008Z,9.90
2018-01-29T09:04:29.452Z,9.90
2018-01-29T09:06:56.948Z,9.90
2018-01-29T09:09:24.343Z,9.90
2018-01-29T09:11:52.555Z,9.90
2018-01-29T09:14:20.003Z,9.90
2018-01-29T09:16:47.475Z,9.90
2018-01-29T09:19:14.915Z,9.90
2018-01-29T09:21:42.371Z,9.90
2018-01-29T09:24:09.815Z,9.90
2018-01-29T09:26:37.275Z,9.90
2018-01-29T09:29:04.706Z,9.90
2018-01-29T09:31:32.931Z,10.00
2018-01-29T09:34:00.376Z,9.90
2018-01-29T09:36:27.823Z,10.00
2018-01-29T09:38:55.263Z,10.00
2018-01-29T09:41:22.715Z,10.00
2018-01-29T09:43:50.923Z,10.00
2018-01-29T09:48:52.150Z,10.00
2018-01-29T09:51:20.383Z,10.00
2018-01-29T09:53:47.830Z,10.00
2018-01-29T09:56:15.287Z,10.10
2018-01-29T09:58:42.743Z,10.10
2018-01-29T10:01:10.184Z,10.10
2018-01-29T10:03:37.623Z,10.10
2018-01-29T10:06:05.320Z,10.10
2018-01-29T10:08:32.760Z,10.10
2018-01-29T10:11:00.201Z,10.10
2018-01-29T10:13:27.642Z,10.10
2018-01-29T10:15:55.869Z,10.20
2018-01-29T10:18:23.301Z,10.20
2018-01-29T10:20:50.752Z,10.20
2018-01-29T10:23:19.029Z,10.20
2018-01-29T10:25:46.461Z,10.20
2018-01-29T10:28:14.685Z,10.20
2018-01-29T10:30:42.117Z,10.20
2018-01-29T10:33:09.575Z,10.30
2018-01-29T10:35:37.014Z,10.30
2018-01-29T10:38:05.306Z,10.30
2018-01-29T10:40:33.590Z,10.30
2018-01-29T10:43:01.067Z,10.30
2018-01-29T10:45:28.505Z,10.30
2018-01-29T10:47:55.968Z,10.40
2018-01-29T10:50:23.390Z,10.40
2018-01-29T10:52:51.620Z,10.40
2018-01-29T10:55:19.059Z,10.40
2018-01-29T10:57:46.497Z,10.40
2018-01-29T11:00:13.938Z,10.40
2018-01-29T11:02:42.154Z,10.50
2018-01-29T11:05:09.595Z,10.50
2018-01-29T11:07:37.046Z,10.50
2018-01-29T11:10:04.482Z,10.50
2018-01-29T11:12:32.697Z,10.50
2018-01-29T11:15:00.150Z,10.50
2018-01-29T11:17:27.581Z,10.50
2018-01-29T11:19:55.014Z,10.50
2018-01-29T11:22:22.476Z,10.50
2018-01-29T11:24:49.909Z,10.50
2018-01-29T11:27:17.353Z,10.50
2018-01-29T11:29:44.786Z,10.50
2018-01-29T11:32:12.230Z,10.50
2018-01-29T11:34:39.663Z,10.50
2018-01-29T11:37:07.105Z,10.50
2018-01-29T11:39:34.538Z,10.50
2018-01-29T11:42:01.993Z,10.50
2018-01-29T11:44:29.435Z,10.50
2018-01-29T11:46:56.864Z,10.50
2018-01-29T11:49:25.062Z,10.50
2018-01-29T11:51:52.502Z,10.50
2018-01-29T11:54:19.942Z,10.50
2018-01-29T11:56:48.158Z,10.50
2018-01-29T11:59:15.594Z,10.50
2018-01-29T12:01:43.037Z,10.50
2018-01-29T12:04:11.253Z,10.60
2018-01-29T12:06:38.681Z,10.50
2018-01-29T12:09:06.125Z,10.50
2018-01-29T12:11:34.336Z,10.60
2018-01-29T12:14:01.788Z,10.60
2018-01-29T12:16:29.212Z,10.50
2018-01-29T12:18:57.434Z,10.50
2018-01-29T12:21:24.874Z,10.50
2018-01-29T12:23:52.317Z,10.50
2018-01-29T12:26:19.757Z,10.60
2018-01-29T12:28:47.971Z,10.50
2018-01-29T12:31:15.410Z,10.50
2018-01-29T12:33:42.844Z,10.50
2018-01-29T12:36:11.045Z,10.50
2018-01-29T12:38:38.487Z,10.50
2018-01-29T12:41:06.695Z,10.60
2018-01-29T12:43:34.153Z,10.50
2018-01-29T12:46:01.589Z,10.50
2018-01-29T12:48:29.029Z,10.50
2018-01-29T12:50:57.225Z,10.50
2018-01-29T12:53:24.674Z,10.50
2018-01-29T12:55:52.113Z,10.50
2018-01-29T12:58:20.323Z,10.60
2018-01-29T13:00:47.761Z,10.50
2018-01-29T13:03:15.201Z,10.50
2018-01-29T13:05:43.409Z,10.60
2018-01-29T13:08:10.854Z,10.60
2018-01-29T13:10:39.305Z,10.60
2018-01-29T13:13:07.555Z,10.50
2018-01-29T13:15:34.950Z,10.50
2018-01-29T13:18:03.145Z,10.50
2018-01-29T13:20:30.589Z,10.50
2018-01-29T13:22:58.031Z,10.50
2018-01-29T13:25:26.253Z,10.50
2018-01-29T13:27:53.685Z,10.50
2018-01-29T13:30:21.134Z,10.50
2018-01-29T13:32:49.338Z,10.50
2018-01-29T13:35:16.781Z,10.50
2018-01-29T13:37:44.215Z,10.50
2018-01-29T13:40:12.432Z,10.40
2018-01-29T13:42:39.874Z,10.40
2018-01-29T13:45:07.329Z,10.40
2018-01-29T13:47:34.765Z,10.40
2018-01-29T13:50:02.987Z,10.40
2018-01-29T13:52:30.430Z,10.40
2018-01-29T13:54:57.888Z,10.40
2018-01-29T13:57:25.345Z,10.40
2018-01-29T13:59:52.801Z,10.40
2018-01-29T14:02:20.259Z,10.40
2018-01-29T14:04:47.746Z,10.40
2018-01-29T14:07:15.194Z,10.40
2018-01-29T14:09:42.654Z,10.40
2018-01-29T14:12:10.167Z,10.40
2018-01-29T14:14:37.625Z,10.40
2018-01-29T14:17:05.054Z,10.40
2018-01-29T14:19:32.502Z,10.40
2018-01-29T14:21:59.946Z,10.40
2018-01-29T14:24:28.152Z,10.40
2018-01-29T14:26:56.365Z,10.40
2018-01-29T14:29:23.826Z,10.40
2018-01-29T14:31:51.265Z,10.40
2018-01-29T14:34:18.703Z,10.40
2018-01-29T14:36:46.919Z,10.40
2018-01-29T14:39:14.367Z,10.30
2018-01-29T14:41:41.830Z,10.30
2018-01-29T14:44:09.266Z,10.30
2018-01-29T14:46:36.721Z,10.30
2018-01-29T14:49:04.153Z,10.30
2018-01-29T14:51:32.378Z,10.30
2018-01-29T14:53:59.817Z,10.30
2018-01-29T14:56:27.266Z,10.30
2018-01-29T14:58:54.692Z,10.30
2018-01-29T15:01:22.912Z,10.30
2018-01-29T15:03:50.359Z,10.30
2018-01-29T15:06:17.818Z,10.30
2018-01-29T15:08:45.249Z,10.30
2018-01-29T15:11:13.457Z,10.30
2018-01-29T15:13:40.938Z,10.30
2018-01-29T15:16:08.422Z,10.30
2018-01-29T15:18:35.862Z,10.30
2018-01-29T15:21:03.320Z,10.30
2018-01-29T15:23:30.754Z,10.30
2018-01-29T15:25:58.200Z,10.30
2018-01-29T15:28:25.634Z,10.30
2018-01-29T15:30:53.853Z,10.30
2018-01-29T15:33:21.299Z,10.20
2018-01-29T15:35:48.746Z,10.30
2018-01-29T15:38:16.211Z,10.30
2018-01-29T15:40:43.654Z,10.30
2018-01-29T15:43:11.135Z,10.20
2018-01-29T15:45:38.574Z,10.20
2018-01-29T15:48:06.013Z,10.20
2018-01-29T15:50:34.229Z,10.20
2018-01-29T15:53:01.666Z,10.20
2018-01-29T15:55:29.108Z,10.20
2018-01-29T15:57:56.540Z,10.30
2018-01-29T16:00:24.740Z,10.30
2018-01-29T16:02:52.189Z,10.30
2018-01-29T16:05:20.410Z,10.30
2018-01-29T16:07:47.921Z,10.30
2018-01-29T16:10:15.318Z,10.30
2018-01-29T16:12:42.783Z,10.30
2018-01-29T16:15:10.212Z,10.30
2018-01-29T16:17:37.666Z,10.30
2018-01-29T16:20:05.106Z,10.30
2018-01-29T16:22:33.325Z,10.30
2018-01-29T16:25:00.773Z,10.30
2018-01-29T16:27:28.210Z,10.30
2018-01-29T16:29:55.648Z,10.30
2018-01-29T16:32:23.867Z,10.20
2018-01-29T16:34:51.313Z,10.20
2018-01-29T16:37:18.765Z,10.30
2018-01-29T16:39:46.214Z,10.30
2018-01-29T16:42:13.676Z,10.20
2018-01-29T16:44:41.128Z,10.30
2018-01-29T16:47:08.572Z,10.30
2018-01-29T16:49:36.783Z,10.30
2018-01-29T16:52:04.229Z,10.20
2018-01-29T16:54:31.674Z,10.20
2018-01-29T16:56:59.122Z,10.20
2018-01-29T16:59:27.334Z,10.20
2018-01-29T17:01:54.783Z,10.20
2018-01-29T17:04:22.231Z,10.20
2018-01-29T17:06:49.679Z,10.20
2018-01-29T17:09:17.194Z,10.10
2018-01-29T17:11:44.631Z,10.10
2018-01-29T17:14:12.092Z,10.10
2018-01-29T17:16:39.561Z,10.10
2018-01-29T17:19:07.018Z,10.10
2018-01-29T17:21:34.454Z,10.10
2018-01-29T17:24:01.930Z,10.10
2018-01-29T17:26:29.378Z,10.10
2018-01-29T17:28:56.821Z,10.10
2018-01-29T17:31:24.271Z,10.10
2018-01-29T17:33:51.730Z,10.10
2018-01-29T17:36:19.167Z,10.10
2018-01-29T17:38:46.618Z,10.10
2018-01-29T17:41:14.053Z,10.10
2018-01-29T17:43:42.275Z,10.10
2018-01-29T17:46:09.734Z,10.10
2018-01-29T17:48:37.178Z,10.10
2018-01-29T17:51:04.604Z,10.00
2018-01-29T17:53:32.827Z,10.00
2018-01-29T17:56:00.272Z,10.00
2018-01-29T17:58:27.732Z,10.00
2018-01-29T18:00:55.178Z,10.00
2018-01-29T18:03:22.628Z,10.00
2018-01-29T18:05:50.064Z,10.00
2018-01-29T18:08:17.518Z,10.00
2018-01-29T18:10:44.954Z,10.00
2018-01-29T18:13:12.414Z,10.00
2018-01-29T18:15:39.850Z,9.90
2018-01-29T18:18:07.309Z,9.90
2018-01-29T18:20:34.763Z,9.90
2018-01-29T18:23:02.216Z,9.90
2018-01-29T18:25:29.666Z,9.90
2018-01-29T18:27:57.113Z,9.90
2018-01-29T18:30:24.549Z,10.00
2018-01-29T18:32:52.009Z,9.90
2018-01-29T18:35:19.456Z,10.00
2018-01-29T18:37:47.670Z,9.90
2018-01-29T18:40:15.172Z,9.90
2018-01-29T18:42:42.685Z,10.00
2018-01-29T18:45:10.130Z,9.90
2018-01-29T18:47:37.571Z,9.90
2018-01-29T18:50:05.817Z,9.90
2018-01-29T18:52:33.258Z,9.90
2018-01-29T18:55:00.701Z,9.90
2018-01-29T18:57:28.144Z,9.90
2018-01-29T18:59:55.590Z,9.90
2018-01-29T19:02:23.017Z,9.90
2018-01-29T19:04:51.225Z,9.90
2018-01-29T19:07:18.661Z,9.90
2018-01-29T19:09:46.869Z,10.00
2018-01-29T19:12:14.328Z,9.90
2018-01-29T19:14:41.748Z,9.90
2018-01-29T19:17:09.945Z,9.90
2018-01-29T19:19:37.393Z,9.90
2018-01-29T19:22:04.839Z,9.90
2018-01-29T19:24:33.046Z,9.90
2018-01-29T19:27:00.480Z,9.90
2018-01-29T19:32:19.099Z,9.90
2018-01-29T19:34:46.543Z,9.90
2018-01-29T19:37:14.413Z,9.90
2018-01-29T19:39:41.859Z,9.90
2018-01-29T19:42:09.638Z,9.90
2018-01-29T19:44:37.198Z,9.80
2018-01-29T19:47:04.634Z,9.90
2018-01-29T19:49:32.073Z,9.90
2018-01-29T19:51:59.529Z,9.90
2018-01-29T19:54:26.982Z,9.90
2018-01-29T19:56:55.188Z,9.80
2018-01-29T19:59:22.632Z,9.80
2018-01-29T20:01:50.071Z,9.80
2018-01-29T20:04:18.282Z,9.80
2018-01-29T20:06:45.730Z,9.70
2018-01-29T20:09:13.183Z,9.70
2018-01-29T20:11:40.613Z,9.70
2018-01-29T20:14:08.838Z,9.70
2018-01-29T20:16:36.286Z,9.70
2018-01-29T20:19:03.751Z,9.70
2018-01-29T20:21:31.203Z,9.70
2018-01-29T20:23:58.630Z,9.60
2018-01-29T20:26:26.083Z,9.60
2018-01-29T20:28:53.526Z,9.60
2018-01-29T20:31:21.746Z,9.60
2018-01-29T20:33:49.196Z,9.60
2018-01-29T20:36:16.650Z,9.60
2018-01-29T20:38:44.097Z,9.60
2018-01-29T20:41:11.586Z,9.50
2018-01-29T20:43:39.110Z,9.50
2018-01-29T20:46:06.565Z,9.40
2018-01-29T20:48:33.999Z,9.40
2018-01-29T20:51:02.246Z,9.30
2018-01-29T20:53:29.688Z,9.30
2018-01-29T20:55:57.171Z,9.30
2018-01-29T20:58:24.644Z,9.30
2018-01-29T21:00:52.110Z,9.30
2018-01-29T21:03:20.362Z,9.20
2018-01-29T21:05:47.893Z,9.30
2018-01-29T21:08:15.359Z,9.30
2018-01-29T21:10:43.103Z,9.30
2018-01-29T21:13:10.551Z,9.30
2018-01-29T21:15:38.033Z,9.30
2018-01-29T21:18:05.498Z,9.30
2018-01-29T21:20:32.977Z,9.30
2018-01-29T21:23:00.437Z,9.20
2018-01-29T21:25:28.014Z,9.20
2018-01-29T21:27:56.435Z,9.10
2018-01-29T21:30:23.936Z,9.10
2018-01-29T21:32:51.403Z,9.10
2018-01-29T21:35:18.890Z,9.10
2018-01-29T21:37:46.473Z,9.00
2018-01-29T21:40:13.986Z,9.00
2018-01-29T21:42:42.209Z,9.00
2018-01-29T21:45:09.667Z,9.00
2018-01-29T21:47:37.156Z,9.00
2018-01-29T21:50:04.610Z,9.00
2018-01-29T21:52:32.093Z,8.90
2018-01-29T21:55:00.329Z,8.90
2018-01-29T21:57:27.993Z,8.90
2018-01-29T21:59:55.466Z,8.90
2018-01-29T22:02:23.111Z,8.90
2018-01-29T22:04:50.561Z,8.90
2018-01-29T22:07:18.025Z,8.80
2018-01-29T22:09:45.468Z,8.80
2018-01-29T22:12:12.953Z,8.80
2018-01-29T22:14:40.430Z,8.80
2018-01-29T22:17:07.897Z,8.70
2018-01-29T22:19:35.329Z,8.70
2018-01-29T22:22:02.766Z,8.60
2018-01-29T22:24:30.198Z,8.60
2018-01-29T22:26:57.640Z,8.60
2018-01-29T22:29:25.265Z,8.60
2018-01-29T22:31:52.818Z,8.50
2018-01-29T22:34:20.979Z,8.50
2018-01-29T22:36:48.455Z,8.50
2018-01-29T22:39:15.983Z,8.40
2018-01-29T22:41:43.423Z,8.40
2018-01-29T22:44:10.868Z,8.40
2018-01-29T22:46:39.100Z,8.30
2018-01-29T22:49:06.552Z,8.20
2018-01-29T22:51:33.986Z,8.30
2018-01-29T22:54:01.426Z,8.20
2018-01-29T22:56:28.865Z,8.30
2018-01-29T22:58:57.072Z,8.30
2018-01-29T23:01:24.526Z,8.30
2018-01-29T23:03:51.953Z,8.30
2018-01-29T23:06:20.169Z,8.20
2018-01-29T23:08:47.601Z,8.20
2018-01-29T23:11:15.035Z,8.20
2018-01-29T23:13:43.251Z,8.20
2018-01-29T23:16:10.686Z,8.20
2018-01-29T23:18:38.129Z,8.20
2018-01-29T23:21:06.329Z,8.10
2018-01-29T23:23:33.769Z,8.10
2018-01-29T23:26:01.210Z,8.10
2018-01-29T23:28:29.433Z,8.00
2018-01-29T23:30:56.910Z,8.00
2018-01-29T23:33:24.377Z,8.00
2018-01-29T23:35:51.982Z,8.00
2018-01-29T23:38:20.244Z,8.00
2018-01-29T23:40:48.461Z,7.90
2018-01-29T23:43:15.914Z,7.90
2018-01-29T23:45:43.356Z,7.90
2018-01-29T23:48:10.947Z,7.80
2018-01-29T23:50:38.438Z,7.80
2018-01-29T23:53:05.877Z,7.80
2018-01-29T23:55:33.362Z,7.80
2018-01-29T23:58:01.600Z,7.70
